createdAt,value
2023-04-01T00:01:28.857Z,68.70
2023-04-01T00:03:57.223Z,68.70
2023-04-01T00:06:24.449Z,68.70
2023-04-01T00:08:51.651Z,68.70
2023-04-01T00:11:20.596Z,68.80
2023-04-01T00:13:47.982Z,68.80
2023-04-01T00:16:21.671Z,68.70
2023-04-01T00:18:51.129Z,68.60
2023-04-01T00:21:18.872Z,68.70
2023-04-01T00:23:45.989Z,68.70
2023-04-01T00:26:13.628Z,68.60
2023-04-01T00:28:41.219Z,68.70
2023-04-01T00:31:09.660Z,68.60
2023-04-01T00:33:36.781Z,68.70
2023-04-01T00:36:15.684Z,68.70
2023-04-01T00:38:44.035Z,68.70
2023-04-01T00:41:16.735Z,68.70
2023-04-01T00:43:47.246Z,68.60
2023-04-01T00:46:14.771Z,68.70
2023-04-01T00:48:48.266Z,68.70
2023-04-01T00:51:33.368Z,68.70
2023-04-01T00:54:02.885Z,68.70
2023-04-01T00:56:38.004Z,68.60
2023-04-01T00:59:12.879Z,68.60
2023-04-01T01:01:39.941Z,68.60
2023-04-01T01:04:08.102Z,68.60
2023-04-01T01:06:51.636Z,68.60
2023-04-01T01:09:31.871Z,68.60
2023-04-01T01:12:18.635Z,68.70
2023-04-01T01:15:01.513Z,68.60
2023-04-01T01:17:57.810Z,68.60
2023-04-01T01:20:40.825Z,69.20
2023-04-01T01:23:29.478Z,68.50
2023-04-01T01:26:27.435Z,68.50
2023-04-01T01:29:09.407Z,68.50
2023-04-01T01:31:46.860Z,68.50
2023-04-01T01:34:19.916Z,68.60
2023-04-01T01:36:51.986Z,68.60
2023-04-01T01:39:19.677Z,68.50
2023-04-01T01:41:50.398Z,68.50
2023-04-01T01:44:18.440Z,68.50
2023-04-01T01:46:46.367Z,68.40
2023-04-01T01:49:15.586Z,68.40
2023-04-01T01:51:44.163Z,68.40
2023-04-01T01:54:16.202Z,68.30
2023-04-01T01:56:46.377Z,68.30
2023-04-01T01:59:15.691Z,68.30
2023-04-01T02:01:46.704Z,68.30
2023-04-01T02:04:16.831Z,68.40
2023-04-01T02:07:12.650Z,68.30
2023-04-01T02:09:40.385Z,68.30
2023-04-01T02:12:10.369Z,68.30
2023-04-01T02:14:55.333Z,68.30
2023-04-01T02:17:28.953Z,68.30
2023-04-01T02:20:01.129Z,68.30
2023-04-01T02:22:32.797Z,68.90
2023-04-01T02:25:07.661Z,68.30
2023-04-01T02:27:34.998Z,68.30
2023-04-01T02:30:02.187Z,68.20
2023-04-01T02:32:31.035Z,68.50
2023-04-01T02:34:58.283Z,68.20
2023-04-01T02:37:25.382Z,68.20
2023-04-01T02:39:52.265Z,68.30
2023-04-01T02:42:19.122Z,68.30
2023-04-01T02:44:46.208Z,68.30
2023-04-01T02:47:13.097Z,68.30
2023-04-01T02:49:41.447Z,68.30
2023-04-01T02:52:08.407Z,68.30
2023-04-01T02:54:35.522Z,68.30
2023-04-01T02:57:03.858Z,68.30
2023-04-01T02:59:30.983Z,68.30
2023-04-01T03:01:57.886Z,68.30
2023-04-01T03:04:24.884Z,68.30
2023-04-01T03:06:52.397Z,68.30
2023-04-01T03:09:19.423Z,68.30
2023-04-01T03:11:46.403Z,68.20
2023-04-01T03:14:13.352Z,68.30
2023-04-01T03:16:40.449Z,68.30
2023-04-01T03:19:07.409Z,68.20
2023-04-01T03:21:34.355Z,68.20
2023-04-01T03:24:03.391Z,68.20
2023-04-01T03:26:30.222Z,68.20
2023-04-01T03:28:57.449Z,68.20
2023-04-01T03:31:26.180Z,68.20
2023-04-01T03:33:53.124Z,68.20
2023-04-01T03:36:20.515Z,68.10
2023-04-01T03:38:47.592Z,68.10
2023-04-01T03:41:16.206Z,68.30
2023-04-01T03:43:44.581Z,68.00
2023-04-01T03:46:11.604Z,68.00
2023-04-01T03:48:39.151Z,68.10
2023-04-01T03:51:09.496Z,68.10
2023-04-01T03:53:37.630Z,68.20
2023-04-01T03:56:07.697Z,68.10
2023-04-01T03:58:35.845Z,68.10
2023-04-01T04:01:03.996Z,68.30
2023-04-01T04:03:31.207Z,68.10
2023-04-01T04:06:00.912Z,68.10
2023-04-01T04:08:27.819Z,68.10
2023-04-01T04:10:57.632Z,68.00
2023-04-01T04:13:24.547Z,68.00
2023-04-01T04:15:51.466Z,68.00
2023-04-01T04:18:18.515Z,68.00
2023-04-01T04:20:52.250Z,68.00
2023-04-01T04:23:19.670Z,68.00
2023-04-01T04:25:58.394Z,68.10
2023-04-01T04:28:26.396Z,68.00
2023-04-01T04:30:53.777Z,68.00
2023-04-01T04:33:21.895Z,68.00
2023-04-01T04:35:49.340Z,68.00
2023-04-01T04:38:16.404Z,68.00
2023-04-01T04:40:43.950Z,68.00
2023-04-01T04:43:13.752Z,68.10
2023-04-01T04:45:40.957Z,68.00
2023-04-01T04:48:14.152Z,68.00
2023-04-01T04:50:41.603Z,68.00
2023-04-01T04:53:11.596Z,68.00
2023-04-01T04:55:38.846Z,68.00
2023-04-01T04:58:05.757Z,68.00
2023-04-01T05:00:32.669Z,68.00
2023-04-01T05:03:01.193Z,68.00
2023-04-01T05:05:28.176Z,68.00
2023-04-01T05:07:55.729Z,68.00
2023-04-01T05:10:22.704Z,68.60
2023-04-01T05:12:49.720Z,68.00
2023-04-01T05:15:16.714Z,67.80
2023-04-01T05:17:44.766Z,67.90
2023-04-01T05:20:13.898Z,67.90
2023-04-01T05:22:41.469Z,67.90
2023-04-01T05:25:08.596Z,67.80
2023-04-01T05:27:35.849Z,67.90
2023-04-01T05:30:04.417Z,68.00
2023-04-01T05:32:33.449Z,68.00
2023-04-01T05:35:00.447Z,68.00
2023-04-01T05:37:27.347Z,68.00
2023-04-01T05:39:55.642Z,68.00
2023-04-01T05:42:22.539Z,68.00
2023-04-01T05:44:49.467Z,68.00
2023-04-01T05:47:16.448Z,68.00
2023-04-01T05:49:43.344Z,68.00
2023-04-01T05:52:10.454Z,68.00
2023-04-01T05:54:37.402Z,67.90
2023-04-01T05:57:04.559Z,67.90
2023-04-01T05:59:32.422Z,67.90
2023-04-01T06:02:00.027Z,67.90
2023-04-01T06:04:33.912Z,67.80
2023-04-01T06:07:00.967Z,67.80
2023-04-01T06:09:30.272Z,67.90
2023-04-01T06:12:09.901Z,67.90
2023-04-01T06:14:54.792Z,67.90
2023-04-01T06:17:24.547Z,68.00
2023-04-01T06:20:18.251Z,67.90
2023-04-01T06:23:06.111Z,67.90
2023-04-01T06:25:47.288Z,67.80
2023-04-01T06:28:32.652Z,67.80
2023-04-01T06:31:26.609Z,68.00
2023-04-01T06:34:12.289Z,67.90
2023-04-01T06:36:46.610Z,67.90
2023-04-01T06:39:34.559Z,67.90
2023-04-01T06:42:04.600Z,67.90
2023-04-01T06:44:34.337Z,67.90
2023-04-01T06:47:24.580Z,67.80
2023-04-01T06:49:51.463Z,68.00
2023-04-01T06:52:27.596Z,68.00
2023-04-01T06:55:16.948Z,68.00
2023-04-01T06:57:48.289Z,68.10
2023-04-01T07:00:33.242Z,68.20
2023-04-01T07:03:17.456Z,68.20
2023-04-01T07:05:45.266Z,68.30
2023-04-01T07:08:18.421Z,68.30
2023-04-01T07:10:53.442Z,68.20
2023-04-01T07:13:30.526Z,68.30
2023-04-01T07:16:07.631Z,68.30
2023-04-01T07:18:43.844Z,68.20
2023-04-01T07:21:27.767Z,68.10
2023-04-01T07:23:57.925Z,68.00
2023-04-01T07:26:26.099Z,68.10
2023-04-01T07:28:54.530Z,68.00
2023-04-01T07:31:40.933Z,68.10
2023-04-01T07:34:18.988Z,68.00
2023-04-01T07:37:02.505Z,68.00
2023-04-01T07:40:11.009Z,68.00
2023-04-01T07:42:55.979Z,67.90
2023-04-01T07:45:30.640Z,67.80
2023-04-01T07:48:15.949Z,67.80
2023-04-01T07:51:00.801Z,67.70
2023-04-01T07:53:27.730Z,67.60
2023-04-01T07:56:11.536Z,67.60
2023-04-01T07:59:10.867Z,67.50
2023-04-01T08:02:04.918Z,67.40
2023-04-01T08:05:16.439Z,67.30
2023-04-01T08:08:03.274Z,67.30
2023-04-01T08:10:52.746Z,67.30
2023-04-01T08:13:37.352Z,67.40
2023-04-01T08:16:16.992Z,67.50
2023-04-01T08:19:21.456Z,67.40
2023-04-01T08:21:55.767Z,67.40
2023-04-01T08:24:46.418Z,67.30
2023-04-01T08:27:29.126Z,67.30
2023-04-01T08:30:08.270Z,67.30
2023-04-01T08:32:40.001Z,67.30
2023-04-01T08:35:23.917Z,67.30
2023-04-01T08:37:52.151Z,67.30
2023-04-01T08:40:29.757Z,67.20
2023-04-01T08:43:13.558Z,67.00
2023-04-01T08:45:46.262Z,66.90
2023-04-01T08:48:46.012Z,67.00
2023-04-01T08:51:40.345Z,66.90
2023-04-01T08:54:27.035Z,67.00
2023-04-01T08:57:14.233Z,66.90
2023-04-01T08:59:50.184Z,66.90
2023-04-01T09:02:38.614Z,66.90
2023-04-01T09:05:20.403Z,66.90
2023-04-01T09:07:53.559Z,67.00
2023-04-01T09:10:20.649Z,66.90
2023-04-01T09:13:08.301Z,66.70
2023-04-01T09:15:43.808Z,66.60
2023-04-01T09:18:23.054Z,66.60
2023-04-01T09:21:06.143Z,66.50
2023-04-01T09:23:46.800Z,66.50
2023-04-01T09:26:58.005Z,66.40
2023-04-01T09:29:53.118Z,66.30
2023-04-01T09:32:43.350Z,66.20
2023-04-01T09:35:32.154Z,66.20
2023-04-01T09:38:16.482Z,66.10
2023-04-01T09:40:46.337Z,66.00
2023-04-01T09:43:16.171Z,66.00
2023-04-01T09:46:07.305Z,65.90
2023-04-01T09:48:58.662Z,65.90
2023-04-01T09:52:15.895Z,65.90
2023-04-01T09:55:13.461Z,65.80
2023-04-01T09:58:01.237Z,65.80
2023-04-01T10:00:46.938Z,65.80
2023-04-01T10:03:35.898Z,65.80
2023-04-01T10:06:12.104Z,65.60
2023-04-01T10:08:48.024Z,65.60
2023-04-01T10:11:41.589Z,65.60
2023-04-01T10:14:39.782Z,65.60
2023-04-01T10:17:21.792Z,65.50
2023-04-01T10:19:51.835Z,65.50
2023-04-01T10:22:39.989Z,65.50
2023-04-01T10:25:56.998Z,65.40
2023-04-01T10:29:02.158Z,65.40
2023-04-01T10:31:43.548Z,65.40
2023-04-01T10:34:29.122Z,65.30
2023-04-01T10:36:59.149Z,65.30
2023-04-01T10:39:34.419Z,65.30
2023-04-01T10:42:29.459Z,65.30
2023-04-01T10:45:24.406Z,65.20
2023-04-01T10:48:09.874Z,65.20
2023-04-01T10:51:03.114Z,65.20
2023-04-01T10:54:12.507Z,65.30
2023-04-01T10:56:51.546Z,65.20
2023-04-01T10:59:50.100Z,65.20
2023-04-01T11:02:28.720Z,65.20
2023-04-01T11:05:33.327Z,65.10
2023-04-01T11:08:38.107Z,65.20
2023-04-01T11:11:19.894Z,65.10
2023-04-01T11:13:56.136Z,65.10
2023-04-01T11:17:04.260Z,65.10
2023-04-01T11:19:38.286Z,65.10
2023-04-01T11:22:26.468Z,65.10
2023-04-01T11:24:59.418Z,65.20
2023-04-01T11:27:39.724Z,65.10
2023-04-01T11:30:25.947Z,65.10
2023-04-01T11:33:09.081Z,65.10
2023-04-01T11:35:52.626Z,65.20
2023-04-01T11:38:36.539Z,65.20
2023-04-01T11:41:19.943Z,65.20
2023-04-01T11:44:23.639Z,65.30
2023-04-01T11:47:44.716Z,65.30
2023-04-01T11:50:40.595Z,65.30
2023-04-01T11:53:17.153Z,65.30
2023-04-01T11:56:01.991Z,65.20
2023-04-01T11:59:07.289Z,65.30
2023-04-01T12:02:00.875Z,65.20
2023-04-01T12:04:49.509Z,65.20
2023-04-01T12:07:35.471Z,65.20
2023-04-01T12:10:23.984Z,65.20
2023-04-01T12:13:02.697Z,65.20
2023-04-01T12:15:53.017Z,65.20
2023-04-01T12:18:34.989Z,65.90
2023-04-01T12:21:10.840Z,65.20
2023-04-01T12:23:48.672Z,65.10
2023-04-01T12:26:25.374Z,65.00
2023-04-01T12:29:10.876Z,64.90
2023-04-01T12:32:05.370Z,64.80
2023-04-01T12:34:44.343Z,64.80
2023-04-01T12:37:34.629Z,64.70
2023-04-01T12:40:27.340Z,64.80
2023-04-01T12:43:13.242Z,64.70
2023-04-01T12:46:06.896Z,64.70
2023-04-01T12:48:58.753Z,64.70
2023-04-01T12:52:03.335Z,64.60
2023-04-01T12:55:13.457Z,64.50
2023-04-01T12:58:07.044Z,64.60
2023-04-01T13:00:36.693Z,64.40
2023-04-01T13:03:18.764Z,64.40
2023-04-01T13:06:17.243Z,64.30
2023-04-01T13:09:03.362Z,64.30
2023-04-01T13:11:58.344Z,64.30
2023-04-01T13:15:06.163Z,64.20
2023-04-01T13:17:58.545Z,64.10
2023-04-01T13:20:59.584Z,64.00
2023-04-01T13:23:32.470Z,64.00
2023-04-01T13:26:34.036Z,64.00
2023-04-01T13:29:00.890Z,63.80
2023-04-01T13:31:30.829Z,63.70
2023-04-01T13:34:16.592Z,63.70
2023-04-01T13:36:58.966Z,63.60
2023-04-01T13:40:07.951Z,63.60
2023-04-01T13:42:55.039Z,63.50
2023-04-01T13:45:36.449Z,63.50
2023-04-01T13:48:27.824Z,63.50
2023-04-01T13:51:03.716Z,63.50
2023-04-01T13:53:59.182Z,63.40
2023-04-01T13:56:37.567Z,63.50
2023-04-01T13:59:34.077Z,63.60
2023-04-01T14:02:07.252Z,63.50
2023-04-01T14:04:58.043Z,63.60
2023-04-01T14:08:02.847Z,63.70
2023-04-01T14:10:55.864Z,63.80
2023-04-01T14:13:54.828Z,63.80
2023-04-01T14:16:50.470Z,64.00
2023-04-01T14:19:20.532Z,63.90
2023-04-01T14:22:31.337Z,63.90
2023-04-01T14:25:20.125Z,64.00
2023-04-01T14:28:10.008Z,64.10
2023-04-01T14:31:08.099Z,64.00
2023-04-01T14:34:13.683Z,64.10
2023-04-01T14:37:04.851Z,64.10
2023-04-01T14:40:09.474Z,64.20
2023-04-01T14:42:42.006Z,64.30
2023-04-01T14:45:37.184Z,64.30
2023-04-01T14:48:14.970Z,64.30
2023-04-01T14:50:47.694Z,64.30
2023-04-01T14:53:23.907Z,64.30
2023-04-01T14:55:58.485Z,64.30
2023-04-01T14:58:51.326Z,64.30
2023-04-01T15:01:33.275Z,64.30
2023-04-01T15:04:37.052Z,64.30
2023-04-01T15:07:03.907Z,64.30
2023-04-01T15:09:58.150Z,64.40
2023-04-01T15:12:48.846Z,64.50
2023-04-01T15:15:49.498Z,64.50
2023-04-01T15:18:35.878Z,64.50
2023-04-01T15:21:12.026Z,64.50
2023-04-01T15:24:05.063Z,64.50
2023-04-01T15:26:52.728Z,64.70
2023-04-01T15:29:55.989Z,65.90
2023-04-01T15:32:48.002Z,65.60
2023-04-01T15:35:47.804Z,65.60
2023-04-01T15:38:42.120Z,65.90
2023-04-01T15:41:24.330Z,66.00
2023-04-01T15:43:54.822Z,66.20
2023-04-01T15:46:48.977Z,66.40
2023-04-01T15:49:35.274Z,66.50
2023-04-01T15:52:16.223Z,66.40
2023-04-01T15:55:30.792Z,66.50
2023-04-01T15:58:28.080Z,66.50
2023-04-01T16:00:59.705Z,66.60
2023-04-01T16:03:53.198Z,66.50
2023-04-01T16:06:38.946Z,66.50
2023-04-01T16:09:23.550Z,66.70
2023-04-01T16:12:13.372Z,66.60
2023-04-01T16:15:01.515Z,66.70
2023-04-01T16:17:32.232Z,66.80
2023-04-01T16:20:14.321Z,66.90
2023-04-01T16:22:57.075Z,66.90
2023-04-01T16:26:08.652Z,66.80
2023-04-01T16:28:51.356Z,66.80
2023-04-01T16:31:50.500Z,66.70
2023-04-01T16:34:19.730Z,66.20
2023-04-01T16:37:16.603Z,66.20
2023-04-01T16:40:17.270Z,66.30
2023-04-01T16:43:28.406Z,66.40
2023-04-01T16:46:28.562Z,66.50
2023-04-01T16:49:14.262Z,66.50
2023-04-01T16:51:52.998Z,66.50
2023-04-01T16:54:22.697Z,66.60
2023-04-01T16:57:04.003Z,66.60
2023-04-01T16:59:36.249Z,66.70
2023-04-01T17:02:10.016Z,66.70
2023-04-01T17:04:52.873Z,66.70
2023-04-01T17:07:46.664Z,66.70
2023-04-01T17:10:40.700Z,66.70
2023-04-01T17:13:23.397Z,66.80
2023-04-01T17:16:05.417Z,66.80
2023-04-01T17:18:58.051Z,66.80
2023-04-01T17:21:45.065Z,66.80
2023-04-01T17:24:14.667Z,66.90
2023-04-01T17:27:05.868Z,66.90
2023-04-01T17:29:58.340Z,66.90
2023-04-01T17:32:25.167Z,66.90
2023-04-01T17:35:12.196Z,66.40
2023-04-01T17:37:42.023Z,65.80
2023-04-01T17:40:27.752Z,65.70
2023-04-01T17:43:13.494Z,65.60
2023-04-01T17:45:56.485Z,65.80
2023-04-01T17:48:32.421Z,66.00
2023-04-01T17:51:15.970Z,66.10
2023-04-01T17:54:00.171Z,66.20
2023-04-01T17:57:03.996Z,66.30
2023-04-01T17:59:40.290Z,66.50
2023-04-01T18:02:52.008Z,66.50
2023-04-01T18:05:53.409Z,66.70
2023-04-01T18:08:57.672Z,66.70
2023-04-01T18:11:36.136Z,66.70
2023-04-01T18:14:27.856Z,66.80
2023-04-01T18:17:23.532Z,66.90
2023-04-01T18:19:59.512Z,67.10
2023-04-01T18:22:46.725Z,67.10
2023-04-01T18:25:34.847Z,67.00
2023-04-01T18:28:28.723Z,67.00
2023-04-01T18:31:12.243Z,67.10
2023-04-01T18:33:50.152Z,67.00
2023-04-01T18:36:44.967Z,67.00
2023-04-01T18:39:15.109Z,67.00
2023-04-01T18:42:09.949Z,66.30
2023-04-01T18:45:05.332Z,66.50
2023-04-01T18:47:56.758Z,66.70
2023-04-01T18:50:39.850Z,66.90
2023-04-01T18:53:30.118Z,67.00
2023-04-01T18:56:01.551Z,67.00
2023-04-01T18:58:43.924Z,67.30
2023-04-01T19:01:38.112Z,67.30
2023-04-01T19:04:34.975Z,68.20
2023-04-01T19:07:19.330Z,67.60
2023-04-01T19:09:50.468Z,67.60
2023-04-01T19:12:30.066Z,67.60
2023-04-01T19:15:16.943Z,67.70
2023-04-01T19:18:18.437Z,67.70
2023-04-01T19:21:00.822Z,67.90
2023-04-01T19:23:48.607Z,67.90
2023-04-01T19:26:26.214Z,68.00
2023-04-01T19:29:31.724Z,67.90
2023-04-01T19:32:13.415Z,68.00
2023-04-01T19:34:52.373Z,68.10
2023-04-01T19:37:45.004Z,69.20
2023-04-01T19:43:19.552Z,70.30
2023-04-01T19:45:57.290Z,69.90
2023-04-01T19:48:43.656Z,69.00
2023-04-01T19:51:31.943Z,68.40
2023-04-01T19:54:20.958Z,67.90
2023-04-01T19:57:06.334Z,67.60
2023-04-01T19:59:38.533Z,67.20
2023-04-01T20:02:25.660Z,66.70
2023-04-01T20:04:57.834Z,66.70
2023-04-01T20:07:44.943Z,66.80
2023-04-01T20:10:16.929Z,66.50
2023-04-01T20:12:58.835Z,66.40
2023-04-01T20:15:45.793Z,66.30
2023-04-01T20:18:29.361Z,66.30
2023-04-01T20:21:01.402Z,65.70
2023-04-01T20:23:40.517Z,66.30
2023-04-01T20:26:12.718Z,66.20
2023-04-01T20:28:44.754Z,66.40
2023-04-01T20:31:41.337Z,66.60
2023-04-01T20:34:24.067Z,66.70
2023-04-01T20:37:25.162Z,66.90
2023-04-01T20:40:28.277Z,67.10
2023-04-01T20:43:22.686Z,67.20
2023-04-01T20:46:10.385Z,67.30
2023-04-01T20:48:55.485Z,67.40
2023-04-01T20:51:35.818Z,67.50
2023-04-01T20:54:30.560Z,67.70
2023-04-01T20:57:18.029Z,67.70
2023-04-01T20:59:53.814Z,67.80
2023-04-01T21:02:26.858Z,67.50
2023-04-01T21:05:05.995Z,68.20
2023-04-01T21:07:54.200Z,68.80
2023-04-01T21:10:47.633Z,69.10
2023-04-01T21:13:27.534Z,69.70
2023-04-01T21:16:26.194Z,70.00
2023-04-01T21:19:06.281Z,69.30
2023-04-01T21:22:07.301Z,69.60
2023-04-01T21:24:46.491Z,70.20
2023-04-01T21:27:51.124Z,70.40
2023-04-01T21:30:59.008Z,70.10
2023-04-01T21:33:34.951Z,70.10
2023-04-01T21:36:16.878Z,70.70
2023-04-01T21:39:16.229Z,70.50
2023-04-01T21:41:58.178Z,70.40
2023-04-01T21:44:43.248Z,71.00
2023-04-01T21:47:29.116Z,70.70
2023-04-01T21:49:56.052Z,70.90
2023-04-01T21:52:35.195Z,71.00
2023-04-01T21:55:29.825Z,70.90
2023-04-01T21:58:22.802Z,70.80
2023-04-01T22:01:04.656Z,71.40
2023-04-01T22:04:06.743Z,71.50
2023-04-01T22:06:52.636Z,71.80
2023-04-01T22:09:41.205Z,71.30
2023-04-01T22:12:27.889Z,71.60
2023-04-01T22:15:07.229Z,71.40
2023-04-01T22:17:47.528Z,71.70
2023-04-01T22:20:32.081Z,71.60
2023-04-01T22:23:14.823Z,71.80
2023-04-01T22:25:52.361Z,71.80
2023-04-01T22:28:43.422Z,71.90
2023-04-01T22:31:16.591Z,71.90
2023-04-01T22:34:06.758Z,72.10
2023-04-01T22:36:36.723Z,72.00
2023-04-01T22:39:07.032Z,72.20
2023-04-01T22:41:54.923Z,72.60
2023-04-01T22:44:36.093Z,72.50
2023-04-01T22:47:21.396Z,72.50
2023-04-01T22:49:54.487Z,72.70
2023-04-01T22:52:34.688Z,72.80
2023-04-01T22:55:11.481Z,73.00
2023-04-01T22:57:57.114Z,73.00
2023-04-01T23:00:41.925Z,73.00
2023-04-01T23:03:28.800Z,73.10
2023-04-01T23:05:58.606Z,73.10
2023-04-01T23:08:47.367Z,73.40
2023-04-01T23:11:26.808Z,73.50
2023-04-01T23:14:27.805Z,73.50
2023-04-01T23:17:24.262Z,73.60
2023-04-01T23:19:57.417Z,73.70
2023-04-01T23:22:37.223Z,73.80
2023-04-01T23:25:28.341Z,73.40
2023-04-01T23:28:18.878Z,73.20
2023-04-01T23:30:45.747Z,73.30
2023-04-01T23:33:24.245Z,73.90
2023-04-01T23:36:06.385Z,73.60
2023-04-01T23:38:40.542Z,73.40
2023-04-01T23:41:09.188Z,73.50
2023-04-01T23:43:40.565Z,73.20
2023-04-01T23:46:08.822Z,73.10
2023-04-01T23:48:36.019Z,73.30
2023-04-01T23:51:03.913Z,73.20
2023-04-01T23:53:34.960Z,73.10
2023-04-01T23:56:04.324Z,73.10
2023-04-01T23:58:56.494Z,73.00
